Aviation Digital Data Service (ADDS)

Output produced by METARs form (2240 UTC 18 November 2018)
found at http://aviationweather.gov/metar/data/
 
METAR text: EYKA 182220Z 04009KT 340V070 9999 BKN012 OVC022 04/01 Q1027 R08/190095
Conditions at: EYKA (KAUNAS , LT) observed 2220 UTC 18 November 2018
Temperature: 4.0°C (39°F)
Dewpoint: 1.0°C (34°F) [RH = 81%]
Pressure (altimeter): 30.32 inches Hg (1027.0 mb)
Winds: from the NE (40 degrees) at 10 MPH (9 knots; 4.6 m/s)
Visibility: 6 or more miles (10+ km)
Ceiling: 1200 feet AGL
Clouds: broken clouds at 1200 feet AGL
overcast cloud deck at 2200 feet AGL
Weather: no significant weather observed at this time

METAR text: EYKA 182150Z 03008KT 350V080 9999 OVC011 04/01 Q1027 R08/190095
Conditions at: EYKA (KAUNAS , LT) observed 2150 UTC 18 November 2018
Temperature: 4.0°C (39°F)
Dewpoint: 1.0°C (34°F) [RH = 81%]
Pressure (altimeter): 30.32 inches Hg (1027.0 mb)
Winds: from the NNE (30 degrees) at 9 MPH (8 knots; 4.1 m/s)
Visibility: 6 or more miles (10+ km)
Ceiling: 1100 feet AGL
Clouds: overcast cloud deck at 1100 feet AGL
Weather: no significant weather observed at this time

METAR text: EYKA 182120Z 04009KT 350V080 9999 OVC012 04/01 Q1027 R08/190095
Conditions at: EYKA (KAUNAS , LT) observed 2120 UTC 18 November 2018
Temperature: 4.0°C (39°F)
Dewpoint: 1.0°C (34°F) [RH = 81%]
Pressure (altimeter): 30.32 inches Hg (1027.0 mb)
Winds: from the NE (40 degrees) at 10 MPH (9 knots; 4.6 m/s)
Visibility: 6 or more miles (10+ km)
Ceiling: 1200 feet AGL
Clouds: overcast cloud deck at 1200 feet AGL
Weather: no significant weather observed at this time

METAR text: EYKA 182050Z 05008KT 350V080 9999 OVC012 04/02 Q1027 R08/190095
Conditions at: EYKA (KAUNAS , LT) observed 2050 UTC 18 November 2018
Temperature: 4.0°C (39°F)
Dewpoint: 2.0°C (36°F) [RH = 87%]
Pressure (altimeter): 30.32 inches Hg (1027.0 mb)
Winds: from the NE (50 degrees) at 9 MPH (8 knots; 4.1 m/s)
Visibility: 6 or more miles (10+ km)
Ceiling: 1200 feet AGL
Clouds: overcast cloud deck at 1200 feet AGL
Weather: no significant weather observed at this time

Forecast for: EYKA (KAUNAS , LT)
Text: TAF EYKA 181703Z 1818/1918 03010KT 5000 BR OVC015
Forecast period: 1800 UTC 18 November 2018 to 0000 UTC 19 November 2018
Forecast type: FROM: standard forecast or significant change
Winds: from the NNE (30 degrees) at 12 MPH (10 knots; 5.1 m/s)
Visibility: 3 miles (5 km)
Ceiling: 1500 feet AGL
Clouds: overcast cloud deck at 1500 feet AGL
Weather: BR  (mist)
Text: TEMPO 1818/1824 RA BKN005
Forecast period: 1800 UTC 18 November 2018 to 0000 UTC 19 November 2018
Forecast type: TEMPORARY: The following changes expected for less than half the time period
Visibility: missing
Ceiling: 500 feet AGL
Clouds: broken clouds at 500 feet AGL
Weather: RA  (moderate rain)
Text: BECMG 1900/1901 OVC010
Forecast period: 0000 to 1800 UTC 19 November 2018
Forecast type: BECOMING: Conditions expected to become as follows by 0100 UTC 19 November 2018
Winds: from the NNE (30 degrees) at 12 MPH (10 knots; 5.1 m/s)
Visibility: 3 miles (5 km)
Ceiling: 1000 feet AGL
Clouds: overcast cloud deck at 1000 feet AGL
Weather: BR  (mist)
Text: TEMPO 1901/1912 BKN005
Forecast period: 0100 to 1200 UTC 19 November 2018
Forecast type: TEMPORARY: The following changes expected for less than half the time period
Visibility: missing
Ceiling: 500 feet AGL
Clouds: broken clouds at 500 feet AGL
Weather: no significant weather forecast for this period